Time;durP1;ratioP1;P1;durP2;ratioP2;P2;SDS_P1;SDS_P2;PMS_P1;PMS_P2;Temp;Humidity;BMP_temperature;BMP_pressure;BME280_temperature;BME280_humidity;BME280_pressure;Samples;Min_cycle;Max_cycle;Signal;HPM_P1;HPM_P2
2021/03/20 00:01:21;;;;;;;10.90;7.20;;;2.70;69.70;;;;;;5034720;28;20117;-64
2021/03/20 00:03:47;;;;;;;11.18;7.28;;;2.60;69.30;;;;;;5045289;28;20033;-64
2021/03/20 00:06:13;;;;;;;11.77;7.00;;;2.60;69.90;;;;;;5044174;28;20345;-64
2021/03/20 00:08:38;;;;;;;12.07;7.72;;;2.70;69.80;;;;;;5046590;28;20045;-64
2021/03/20 00:11:04;;;;;;;13.20;7.57;;;2.60;69.20;;;;;;5044278;28;20039;-64
2021/03/20 00:13:29;;;;;;;12.23;7.70;;;2.60;69.00;;;;;;5044333;28;20064;-64
2021/03/20 00:15:56;;;;;;;11.32;7.47;;;2.50;68.60;;;;;;5045068;28;20254;-64
2021/03/20 00:18:22;;;;;;;10.35;6.90;;;2.50;68.40;;;;;;5044850;28;20163;-64
2021/03/20 00:20:48;;;;;;;12.27;7.05;;;2.50;68.30;;;;;;5046879;28;20025;-64
2021/03/20 00:23:13;;;;;;;11.82;7.55;;;2.60;69.00;;;;;;5045221;28;20269;-64
2021/03/20 00:25:39;;;;;;;11.23;7.50;;;2.60;68.90;;;;;;5044653;28;20075;-64
2021/03/20 00:28:06;;;;;;;13.52;8.23;;;2.50;69.10;;;;;;5044551;28;20029;-64
2021/03/20 00:30:31;;;;;;;11.43;7.18;;;2.60;69.40;;;;;;5044628;28;20093;-64
2021/03/20 00:32:57;;;;;;;11.45;7.45;;;2.70;68.80;;;;;;5046726;28;20205;-64
2021/03/20 00:35:23;;;;;;;10.77;6.40;;;2.70;69.60;;;;;;5044525;28;20104;-64
2021/03/20 00:37:49;;;;;;;11.85;7.13;;;2.60;68.30;;;;;;5044630;28;20344;-64
2021/03/20 00:40:18;;;;;;;11.52;7.07;;;2.50;68.80;;;;;;5044615;28;20105;-64
2021/03/20 00:42:44;;;;;;;11.30;6.93;;;2.60;69.10;;;;;;5038894;28;20041;-64
2021/03/20 00:45:10;;;;;;;9.52;6.93;;;2.70;68.90;;;;;;5025381;28;20041;-64
2021/03/20 00:47:36;;;;;;;10.77;7.32;;;2.60;68.60;;;;;;5046188;28;20033;-64
2021/03/20 00:50:03;;;;;;;12.48;7.53;;;2.70;68.50;;;;;;5044468;28;20104;-64
2021/03/20 00:52:28;;;;;;;12.98;7.05;;;2.50;67.90;;;;;;5032754;28;20095;-64
2021/03/20 00:54:53;;;;;;;10.65;6.88;;;2.50;68.70;;;;;;5031624;28;20033;-64
2021/03/20 00:57:19;;;;;;;10.50;7.25;;;2.40;67.90;;;;;;5044142;28;20041;-64
2021/03/20 00:59:47;;;;;;;11.43;7.07;;;2.50;69.10;;;;;;5045977;28;20091;-64
2021/03/20 01:02:13;;;;;;;10.82;7.30;;;2.50;68.30;;;;;;5043938;28;20046;-64
2021/03/20 01:04:38;;;;;;;10.60;6.90;;;2.50;68.80;;;;;;5044487;28;20089;-64
2021/03/20 01:07:04;;;;;;;10.30;6.75;;;2.50;68.50;;;;;;5042975;28;20025;-64
2021/03/20 01:09:30;;;;;;;13.57;6.85;;;2.40;68.30;;;;;;5044350;28;20361;-64
2021/03/20 01:11:56;;;;;;;11.18;6.82;;;2.40;68.30;;;;;;5045798;28;20053;-64
2021/03/20 01:14:21;;;;;;;10.43;6.68;;;2.40;68.90;;;;;;5044526;28;20202;-64
2021/03/20 01:16:47;;;;;;;12.85;8.10;;;2.40;68.90;;;;;;5043472;28;20041;-64
2021/03/20 01:19:12;;;;;;;10.27;7.20;;;2.40;69.20;;;;;;5043987;28;20045;-64
2021/03/20 01:21:38;;;;;;;10.57;7.03;;;2.40;68.40;;;;;;5038484;28;20042;-64
2021/03/20 01:24:04;;;;;;;9.80;6.65;;;2.30;68.00;;;;;;5024086;28;20057;-64
2021/03/20 01:26:29;;;;;;;13.80;7.63;;;2.20;67.60;;;;;;5045193;28;20040;-64
2021/03/20 01:28:55;;;;;;;12.65;7.25;;;2.20;67.60;;;;;;5043544;28;20336;-64
2021/03/20 01:31:20;;;;;;;10.65;7.07;;;2.20;67.80;;;;;;5043772;28;20037;-63
2021/03/20 01:33:45;;;;;;;10.32;6.43;;;2.20;68.60;;;;;;5043383;28;20034;-64
2021/03/20 01:36:11;;;;;;;10.07;6.35;;;2.10;67.80;;;;;;5043215;28;20037;-64
2021/03/20 01:38:37;;;;;;;12.35;7.20;;;2.10;68.00;;;;;;5044994;28;20028;-63
2021/03/20 01:41:07;;;;;;;9.88;6.63;;;2.00;67.60;;;;;;5043238;28;20053;-64
2021/03/20 01:43:33;;;;;;;10.70;6.88;;;2.00;67.60;;;;;;5043276;28;20210;-64
2021/03/20 01:46:27;;;;;;;10.20;6.63;;;1.90;67.80;;;;;;5025835;28;20026;-64
2021/03/20 01:48:53;;;;;;;10.50;6.55;;;1.90;67.80;;;;;;5043105;28;20221;-64
2021/03/20 01:51:18;;;;;;;9.77;6.85;;;2.00;68.00;;;;;;5042089;28;20097;-64
2021/03/20 01:53:54;;;;;;;10.95;6.93;;;1.90;67.80;;;;;;5027246;28;20101;-64
2021/03/20 01:56:22;;;;;;;12.27;6.63;;;1.80;67.90;;;;;;5023534;28;20101;-64
2021/03/20 01:58:48;;;;;;;9.00;6.15;;;1.80;68.20;;;;;;5037007;28;20064;-64
2021/03/20 02:01:25;;;;;;;10.73;6.25;;;1.80;68.10;;;;;;5025504;28;20061;-64
2021/03/20 02:03:51;;;;;;;9.63;5.65;;;1.90;68.60;;;;;;5042981;28;20040;-63
2021/03/20 02:06:16;;;;;;;9.50;5.95;;;1.90;68.30;;;;;;5043354;28;20213;-63
2021/03/20 02:08:43;;;;;;;10.52;6.53;;;1.90;68.30;;;;;;5044762;28;20053;-64
2021/03/20 02:11:16;;;;;;;9.70;5.88;;;1.90;68.30;;;;;;5025678;28;20037;-64
2021/03/20 02:13:44;;;;;;;9.32;6.00;;;1.90;68.50;;;;;;5025763;28;20033;-64
2021/03/20 02:16:17;;;;;;;11.23;7.07;;;1.90;68.40;;;;;;5016541;28;20253;-64
2021/03/20 02:19:12;;;;;;;10.48;6.75;;;1.90;68.10;;;;;;5027964;28;20057;-64
2021/03/20 02:21:55;;;;;;;10.80;6.63;;;1.80;68.00;;;;;;5037197;28;20100;-63
2021/03/20 02:24:48;;;;;;;12.40;8.13;;;1.90;68.20;;;;;;5025735;28;20037;-63
2021/03/20 02:27:39;;;;;;;9.77;6.45;;;1.90;68.80;;;;;;5042505;28;20021;-64
2021/03/20 02:30:10;;;;;;;10.48;6.10;;;1.90;68.50;;;;;;5042291;28;20026;-64
2021/03/20 02:32:42;;;;;;;;;;;1.90;68.50;;;;;;5044825;28;20021;-64
2021/03/20 02:35:16;;;;;;;12.65;7.88;;;1.80;68.60;;;;;;5041937;28;19909;-64
2021/03/20 02:38:03;;;;;;;10.55;6.50;;;1.80;69.40;;;;;;5042716;28;20202;-64
2021/03/20 02:41:00;;;;;;;11.15;7.30;;;1.90;69.80;;;;;;5042498;28;20093;-64
2021/03/20 02:43:46;;;;;;;11.40;6.68;;;2.00;69.30;;;;;;5042551;28;20396;-63
2021/03/20 02:46:20;;;;;;;11.00;6.68;;;1.90;69.20;;;;;;5041541;28;20097;-64
2021/03/20 02:48:50;;;;;;;12.05;7.10;;;2.00;69.30;;;;;;5042652;28;20135;-64
2021/03/20 02:51:27;;;;;;;11.80;7.97;;;2.00;69.30;;;;;;5041205;28;20335;-63
2021/03/20 02:54:16;;;;;;;10.30;7.32;;;2.00;69.40;;;;;;5027751;28;20030;-64
2021/03/20 02:56:57;;;;;;;11.15;7.53;;;1.90;69.40;;;;;;5027527;28;20034;-63
2021/03/20 02:59:23;;;;;;;12.73;7.10;;;2.00;69.40;;;;;;5041720;28;20042;-63
2021/03/20 03:01:49;;;;;;;11.80;7.75;;;2.10;69.40;;;;;;5041001;28;20072;-64
2021/03/20 03:04:15;;;;;;;12.50;7.60;;;2.10;69.30;;;;;;5041614;28;20038;-64
2021/03/20 03:06:48;;;;;;;12.43;7.18;;;2.00;69.30;;;;;;5042232;28;20049;-64
2021/03/20 03:09:27;;;;;;;12.00;7.32;;;2.00;68.90;;;;;;5041209;28;20092;-63
2021/03/20 03:11:55;;;;;;;10.57;6.50;;;2.00;69.90;;;;;;5026625;28;20041;-63
2021/03/20 03:14:27;;;;;;;10.35;7.20;;;2.20;69.80;;;;;;5024820;28;20042;-63
2021/03/20 03:16:57;;;;;;;11.35;7.22;;;2.30;70.00;;;;;;5010633;28;20206;-64
2021/03/20 03:19:53;;;;;;;11.88;7.18;;;2.20;69.60;;;;;;5014277;28;20269;-64
2021/03/20 03:22:43;;;;;;;11.20;6.82;;;2.30;69.50;;;;;;5016392;28;20052;-64
2021/03/20 03:25:10;;;;;;;10.20;6.88;;;2.30;69.50;;;;;;5034020;28;20041;-63
2021/03/20 03:27:37;;;;;;;11.85;7.25;;;2.20;69.10;;;;;;5040947;28;20076;-63
2021/03/20 03:30:08;;;;;;;9.57;6.38;;;2.10;68.60;;;;;;5041534;28;20236;-65
2021/03/20 03:32:38;;;;;;;11.02;6.72;;;2.20;69.60;;;;;;5042484;28;20067;-64
2021/03/20 03:35:06;;;;;;;11.32;6.68;;;2.20;69.40;;;;;;5008307;28;20038;-63
2021/03/20 03:37:57;;;;;;;9.23;6.03;;;2.10;69.30;;;;;;5033264;28;20037;-64
2021/03/20 03:40:33;;;;;;;10.45;6.47;;;2.00;69.50;;;;;;5019262;28;20093;-63
2021/03/20 03:42:59;;;;;;;10.43;6.60;;;2.00;69.80;;;;;;5033433;28;20045;-64
2021/03/20 03:45:24;;;;;;;9.45;6.10;;;2.10;69.70;;;;;;5028101;28;20317;-64
2021/03/20 03:47:50;;;;;;;10.23;6.43;;;2.10;69.00;;;;;;5046625;28;20033;-64
2021/03/20 03:50:27;;;;;;;9.15;5.93;;;2.10;69.50;;;;;;5044638;28;20037;-63
2021/03/20 03:52:52;;;;;;;9.98;5.93;;;2.20;69.10;;;;;;5045863;28;20048;-64
2021/03/20 03:55:18;;;;;;;9.77;5.65;;;2.10;69.60;;;;;;5017562;28;20037;-63
2021/03/20 03:58:11;;;;;;;9.65;6.00;;;2.00;68.40;;;;;;5025692;28;20329;-64
2021/03/20 04:00:44;;;;;;;8.68;5.53;;;2.00;69.60;;;;;;5028936;28;20040;-64
2021/03/20 04:03:25;;;;;;;9.00;5.82;;;2.10;69.80;;;;;;5028142;28;20029;-63
2021/03/20 04:06:12;;;;;;;9.05;5.20;;;2.00;69.50;;;;;;5046021;28;20033;-64
2021/03/20 04:09:06;;;;;;;8.95;5.90;;;2.10;69.70;;;;;;5046035;28;20026;-63
2021/03/20 04:12:00;;;;;;;8.85;5.78;;;2.00;69.40;;;;;;5002002;28;20060;-64
2021/03/20 04:14:34;;;;;;;8.93;5.07;;;2.00;69.60;;;;;;5045024;28;20095;-63
2021/03/20 04:17:10;;;;;;;8.07;5.38;;;2.00;69.90;;;;;;5045494;28;20040;-63
2021/03/20 04:19:57;;;;;;;8.40;5.00;;;2.10;69.90;;;;;;5015152;28;20037;-64
2021/03/20 04:22:32;;;;;;;7.93;5.18;;;2.00;70.00;;;;;;5036183;28;20280;-64
2021/03/20 04:25:28;;;;;;;7.32;4.78;;;2.20;70.50;;;;;;5028352;28;20055;-64
2021/03/20 04:28:02;;;;;;;8.63;4.80;;;2.20;70.30;;;;;;5044023;28;20044;-63
2021/03/20 04:30:28;;;;;;;9.30;5.22;;;2.20;70.20;;;;;;5043993;28;20040;-63
2021/03/20 04:33:20;;;;;;;7.20;4.95;;;2.10;70.20;;;;;;5029572;28;20029;-63
2021/03/20 04:36:12;;;;;;;7.90;5.30;;;2.00;71.10;;;;;;5030375;28;20344;-64
2021/03/20 04:38:38;;;;;;;8.00;5.00;;;2.00;70.50;;;;;;5031504;28;20040;-63
2021/03/20 04:41:06;;;;;;;7.90;4.63;;;2.00;70.40;;;;;;5010892;28;20037;-64
2021/03/20 04:43:33;;;;;;;8.80;5.47;;;2.00;70.70;;;;;;5027164;28;20037;-64
2021/03/20 04:45:59;;;;;;;9.57;4.95;;;1.90;70.50;;;;;;5019459;28;20034;-64
2021/03/20 04:48:33;;;;;;;7.55;4.70;;;1.90;70.40;;;;;;5028151;28;20108;-63
2021/03/20 04:51:14;;;;;;;7.97;4.60;;;1.90;70.40;;;;;;5045236;28;20093;-63
2021/03/20 04:53:40;;;;;;;8.40;4.65;;;2.00;71.40;;;;;;5028417;28;20266;-63
2021/03/20 04:56:06;;;;;;;7.78;4.90;;;2.00;71.00;;;;;;5044742;28;20041;-63
2021/03/20 04:58:57;;;;;;;7.97;5.22;;;2.00;70.70;;;;;;5014384;28;20049;-63
2021/03/20 05:01:46;;;;;;;9.63;5.43;;;2.00;71.20;;;;;;5020602;28;20069;-63
2021/03/20 05:04:33;;;;;;;8.65;5.10;;;1.90;70.40;;;;;;5032694;28;20033;-63
2021/03/20 05:06:59;;;;;;;7.43;4.78;;;2.00;69.80;;;;;;5043151;28;20033;-63
2021/03/20 05:09:25;;;;;;;7.65;5.07;;;1.90;70.40;;;;;;5043044;28;20025;-63
2021/03/20 05:12:14;;;;;;;8.00;5.20;;;1.90;70.20;;;;;;5028246;28;20037;-63
2021/03/20 05:14:56;;;;;;;8.18;5.72;;;1.90;70.10;;;;;;5043667;28;20036;-63
2021/03/20 05:17:22;;;;;;;7.70;5.18;;;1.90;69.90;;;;;;5043082;28;20037;-63
2021/03/20 05:19:48;;;;;;;7.85;5.28;;;1.80;69.60;;;;;;5042596;28;20041;-63
2021/03/20 05:22:28;;;;;;;8.43;5.22;;;1.90;70.10;;;;;;5043798;28;20045;-63
2021/03/20 05:24:54;;;;;;;8.60;5.87;;;1.80;69.60;;;;;;5044054;28;20041;-63
2021/03/20 05:27:24;;;;;;;7.75;5.38;;;1.90;70.00;;;;;;5043606;28;20165;-63
2021/03/20 05:29:50;;;;;;;8.85;5.57;;;1.90;69.10;;;;;;5045683;28;20034;-63
2021/03/20 05:32:17;;;;;;;8.88;5.47;;;1.90;69.60;;;;;;5043907;28;20048;-63
2021/03/20 05:34:43;;;;;;;6.82;5.03;;;1.80;69.20;;;;;;5042701;28;20041;-63
2021/03/20 05:37:16;;;;;;;7.95;5.15;;;1.80;68.50;;;;;;5017278;28;20038;-63
2021/03/20 05:39:42;;;;;;;8.35;5.32;;;1.80;68.10;;;;;;5029420;28;20044;-63
2021/03/20 05:42:23;;;;;;;8.27;5.45;;;1.90;68.10;;;;;;5043261;28;20031;-64
2021/03/20 05:45:09;;;;;;;9.48;5.80;;;1.90;68.10;;;;;;5044443;28;20032;-63
2021/03/20 05:47:37;;;;;;;9.07;5.60;;;1.70;68.20;;;;;;5026588;28;20037;-63
2021/03/20 05:50:19;;;;;;;8.10;5.50;;;1.70;68.40;;;;;;5043454;28;20206;-63
2021/03/20 05:53:20;;;;;;;9.68;6.07;;;1.70;69.00;;;;;;5026602;28;20037;-64
2021/03/20 05:55:56;;;;;;;9.10;6.13;;;1.90;68.60;;;;;;4992625;28;20060;-64
2021/03/20 05:58:53;;;;;;;9.27;5.50;;;1.90;69.40;;;;;;5043450;28;20072;-64
2021/03/20 06:01:33;;;;;;;7.63;5.65;;;1.90;69.80;;;;;;5042122;28;20064;-64
2021/03/20 06:04:21;;;;;;;9.18;5.68;;;1.90;69.50;;;;;;5042007;28;20029;-63
2021/03/20 06:06:49;;;;;;;11.13;6.07;;;1.90;69.30;;;;;;5043078;28;20035;-63
2021/03/20 06:09:52;;;;;;;11.52;6.72;;;1.90;70.00;;;;;;5042769;28;20028;-64
2021/03/20 06:12:32;;;;;;;10.18;6.65;;;1.90;70.50;;;;;;5028354;28;20055;-64
2021/03/20 06:15:22;;;;;;;7.65;5.32;;;2.00;70.50;;;;;;5044604;28;20290;-63
2021/03/20 06:18:25;;;;;;;7.63;4.88;;;1.90;70.00;;;;;;5042593;28;20037;-63
2021/03/20 06:21:12;;;;;;;7.45;4.63;;;1.80;68.50;;;;;;5043678;28;20075;-63
2021/03/20 06:23:44;;;;;;;7.68;4.35;;;1.90;69.50;;;;;;5041627;28;20057;-63
2021/03/20 06:26:20;;;;;;;5.47;3.67;;;1.80;67.90;;;;;;5025632;28;20042;-63
2021/03/20 06:28:56;;;;;;;6.53;4.35;;;1.90;68.50;;;;;;5036956;28;20040;-63
2021/03/20 06:31:26;;;;;;;7.32;4.22;;;1.90;67.60;;;;;;5043047;28;20340;-63
2021/03/20 06:34:00;;;;;;;6.47;3.88;;;1.90;68.00;;;;;;5042749;28;20040;-63
2021/03/20 06:36:35;;;;;;;6.45;4.20;;;2.00;67.90;;;;;;5026309;28;20042;-64
2021/03/20 06:39:14;;;;;;;8.05;4.10;;;1.90;66.30;;;;;;5027623;28;20029;-63
2021/03/20 06:42:03;;;;;;;5.68;3.95;;;1.90;65.90;;;;;;5043610;28;20037;-63
2021/03/20 06:44:34;;;;;;;7.88;4.47;;;2.00;65.50;;;;;;5029557;28;20064;-63
2021/03/20 06:47:00;;;;;;;7.88;4.63;;;2.20;65.30;;;;;;5041800;28;20040;-63
2021/03/20 06:49:34;;;;;;;9.07;5.03;;;2.30;64.80;;;;;;5041215;28;20037;-63
2021/03/20 06:52:01;;;;;;;11.20;4.88;;;2.40;64.80;;;;;;5041341;28;20063;-63
2021/03/20 06:54:27;;;;;;;5.97;4.57;;;2.50;64.20;;;;;;5041223;28;20040;-63
2021/03/20 06:56:53;;;;;;;6.13;4.63;;;2.40;63.10;;;;;;5043126;28;20026;-63
2021/03/20 06:59:20;;;;;;;6.78;4.80;;;2.50;63.90;;;;;;5041499;28;20038;-63
2021/03/20 07:02:11;;;;;;;6.65;5.00;;;2.50;63.90;;;;;;5040982;28;20076;-64
2021/03/20 07:04:57;;;;;;;6.03;4.38;;;2.40;63.30;;;;;;5042344;28;20104;-63
2021/03/20 07:07:46;;;;;;;6.80;4.47;;;2.50;62.80;;;;;;5041133;28;20267;-63
2021/03/20 07:10:40;;;;;;;6.28;4.80;;;2.70;62.50;;;;;;5041024;28;20057;-64
2021/03/20 07:13:20;;;;;;;6.57;4.68;;;3.70;61.00;;;;;;5034211;28;20036;-63
2021/03/20 07:16:01;;;;;;;5.90;4.47;;;4.20;59.40;;;;;;5039701;28;20088;-63
2021/03/20 07:18:34;;;;;;;7.33;4.73;;;4.70;58.20;;;;;;5026514;28;20254;-64
2021/03/20 07:21:00;;;;;;;6.05;4.63;;;4.60;57.10;;;;;;5027711;28;20307;-63
2021/03/20 07:23:26;;;;;;;6.88;5.00;;;4.60;56.30;;;;;;5046133;28;20101;-63
2021/03/20 07:25:53;;;;;;;6.75;4.20;;;4.20;57.60;;;;;;5046173;28;20366;-63
2021/03/20 07:28:20;;;;;;;6.20;4.88;;;4.00;58.90;;;;;;5044946;28;20037;-63
2021/03/20 07:30:52;;;;;;;5.78;4.15;;;3.90;58.90;;;;;;5022626;28;20265;-64
2021/03/20 07:33:36;;;;;;;7.65;4.72;;;3.80;58.90;;;;;;5028282;28;20033;-64
2021/03/20 07:36:29;;;;;;;5.70;4.40;;;4.30;58.30;;;;;;5046349;28;20042;-67
2021/03/20 07:39:26;;;;;;;5.20;4.18;;;5.00;56.60;;;;;;5047453;28;20036;-64
2021/03/20 07:41:55;;;;;;;6.40;4.30;;;5.70;55.10;;;;;;5046487;28;20253;-63
2021/03/20 07:44:29;;;;;;;6.43;4.30;;;7.60;49.60;;;;;;5045984;28;20033;-64
2021/03/20 07:46:55;;;;;;;6.03;4.38;;;7.10;49.20;;;;;;5045575;28;20360;-64
2021/03/20 07:49:27;;;;;;;6.00;4.28;;;6.30;51.20;;;;;;5017434;28;20034;-64
2021/03/20 07:52:03;;;;;;;6.47;4.47;;;5.80;51.90;;;;;;5032929;28;20068;-64
2021/03/20 07:54:31;;;;;;;7.60;4.70;;;5.40;53.50;;;;;;5024585;28;20257;-64
2021/03/20 07:57:11;;;;;;;6.65;4.50;;;5.00;54.00;;;;;;5026625;28;20325;-64
2021/03/20 07:59:50;;;;;;;7.15;4.78;;;4.80;55.50;;;;;;5045223;28;20313;-64
2021/03/20 08:02:36;;;;;;;11.15;4.68;;;4.70;56.20;;;;;;5026152;28;20061;-64
2021/03/20 08:05:18;;;;;;;6.72;4.60;;;4.50;56.10;;;;;;5042400;28;20084;-64
2021/03/20 08:07:46;;;;;;;5.90;4.32;;;4.20;56.80;;;;;;5031615;28;20094;-64
2021/03/20 08:10:18;;;;;;;5.85;4.03;;;4.10;57.30;;;;;;5035213;28;20038;-64
2021/03/20 08:13:12;;;;;;;5.60;4.25;;;4.20;57.10;;;;;;5045537;28;20037;-64
2021/03/20 08:15:42;;;;;;;6.72;4.55;;;4.00;56.50;;;;;;5023214;28;20320;-64
2021/03/20 08:18:24;;;;;;;7.93;4.07;;;3.90;57.60;;;;;;5043711;28;20329;-64
2021/03/20 08:21:27;;;;;;;5.85;4.60;;;4.20;56.80;;;;;;5046763;28;20041;-64
2021/03/20 08:24:09;;;;;;;6.88;4.60;;;4.10;57.30;;;;;;5015914;28;20093;-64
2021/03/20 08:27:02;;;;;;;6.68;4.10;;;3.90;55.80;;;;;;5023638;28;20033;-64
2021/03/20 08:29:52;;;;;;;6.22;4.40;;;4.60;55.30;;;;;;5025905;28;20040;-63
2021/03/20 08:32:47;;;;;;;6.63;4.63;;;4.40;56.20;;;;;;5042823;28;20029;-63
2021/03/20 08:35:41;;;;;;;5.50;3.92;;;4.40;56.60;;;;;;5015965;28;20272;-63
2021/03/20 08:38:19;;;;;;;5.25;4.05;;;5.30;54.60;;;;;;5024690;28;20034;-63
2021/03/20 08:40:54;;;;;;;6.40;4.15;;;5.50;52.90;;;;;;5038588;28;20045;-63
2021/03/20 08:43:44;;;;;;;6.10;3.80;;;5.30;52.00;;;;;;5044294;28;20057;-64
2021/03/20 08:46:41;;;;;;;5.40;4.10;;;5.30;52.50;;;;;;5044783;28;20038;-63
2021/03/20 08:49:42;;;;;;;6.80;4.38;;;5.60;53.70;;;;;;5029533;28;20280;-63
2021/03/20 08:52:11;;;;;;;32.08;12.77;;;5.70;53.40;;;;;;5044423;28;20101;-63
2021/03/20 08:54:58;;;;;;;6.50;4.30;;;5.90;52.50;;;;;;5042970;28;20225;-63
2021/03/20 08:57:31;;;;;;;6.60;4.55;;;5.90;52.50;;;;;;5044074;28;20036;-63
2021/03/20 08:59:57;;;;;;;4.85;3.95;;;6.10;53.80;;;;;;5045705;28;20029;-63
2021/03/20 09:02:28;;;;;;;6.32;4.30;;;6.10;53.70;;;;;;5026218;28;20045;-62
2021/03/20 09:04:59;;;;;;;5.95;4.13;;;6.40;54.00;;;;;;5027834;28;20034;-63
2021/03/20 09:07:28;;;;;;;5.03;4.15;;;6.60;53.50;;;;;;5034623;28;20186;-63
2021/03/20 09:09:55;;;;;;;4.70;3.55;;;6.60;52.00;;;;;;5022845;28;20029;-64
2021/03/20 09:12:26;;;;;;;4.75;3.75;;;6.30;52.10;;;;;;5026508;28;20037;-63
2021/03/20 09:14:52;;;;;;;5.22;4.18;;;6.10;49.40;;;;;;5044599;28;20398;-64
2021/03/20 09:17:27;;;;;;;5.95;4.10;;;6.10;50.60;;;;;;5044139;28;20037;-64
2021/03/20 09:19:54;;;;;;;5.30;4.15;;;5.80;49.60;;;;;;5042607;28;20101;-64
2021/03/20 09:22:26;;;;;;;4.90;3.83;;;5.90;50.20;;;;;;5031905;28;20034;-64
2021/03/20 09:24:59;;;;;;;5.53;3.83;;;5.70;48.00;;;;;;5029621;28;20037;-63
2021/03/20 09:28:03;;;;;;;6.78;3.92;;;5.90;51.30;;;;;;5043126;28;20096;-63
2021/03/20 09:30:45;;;;;;;5.10;3.60;;;5.60;49.00;;;;;;5043636;28;20021;-62
2021/03/20 09:33:27;;;;;;;5.80;3.88;;;5.50;50.30;;;;;;5042819;28;20033;-62
2021/03/20 09:36:16;;;;;;;6.00;4.47;;;5.20;48.50;;;;;;5044709;28;20036;-64
2021/03/20 09:38:43;;;;;;;5.80;4.10;;;5.10;50.30;;;;;;5044299;28;20044;-64
2021/03/20 09:41:14;;;;;;;5.47;4.22;;;5.10;51.60;;;;;;5042379;28;20358;-64
2021/03/20 09:43:41;;;;;;;6.13;4.03;;;4.90;51.90;;;;;;5043084;28;20033;-63
2021/03/20 09:46:25;;;;;;;7.20;4.40;;;4.90;53.60;;;;;;5042335;28;20190;-63
2021/03/20 09:48:51;;;;;;;5.03;3.50;;;4.80;53.70;;;;;;5043283;28;20041;-63
2021/03/20 09:51:47;;;;;;;5.13;3.53;;;4.70;52.90;;;;;;5043081;28;20209;-64
2021/03/20 09:54:29;;;;;;;5.85;3.85;;;4.70;50.60;;;;;;5042917;28;20021;-63
2021/03/20 09:57:07;;;;;;;5.43;4.00;;;4.60;52.00;;;;;;5045170;28;20092;-64
2021/03/20 09:59:35;;;;;;;5.18;4.05;;;4.50;51.00;;;;;;5043979;28;20056;-64
2021/03/20 10:02:12;;;;;;;5.05;3.85;;;4.50;51.90;;;;;;5042567;28;20337;-64
2021/03/20 10:04:53;;;;;;;5.28;3.95;;;4.40;52.70;;;;;;5042124;28;20049;-64
2021/03/20 10:07:21;;;;;;;;;;;4.40;51.90;;;;;;5043365;28;20206;-64
2021/03/20 10:10:04;;;;;;;6.60;4.75;;;4.00;52.80;;;;;;5042750;28;20215;-62
2021/03/20 10:12:46;;;;;;;5.50;4.43;;;4.20;54.10;;;;;;5041581;28;20033;-64
2021/03/20 10:15:13;;;;;;;8.38;5.20;;;4.00;56.00;;;;;;5041753;28;20079;-63
2021/03/20 10:17:58;;;;;;;6.93;4.07;;;4.40;57.30;;;;;;5044400;28;20025;-64
2021/03/20 10:20:34;;;;;;;5.13;3.70;;;4.60;51.80;;;;;;5042042;28;20041;-64
2021/03/20 10:23:04;;;;;;;5.53;3.35;;;4.70;50.20;;;;;;5041466;28;20147;-64
2021/03/20 10:25:30;;;;;;;5.57;3.90;;;4.70;47.70;;;;;;5042802;28;20037;-64
2021/03/20 10:28:00;;;;;;;7.32;4.18;;;4.50;48.30;;;;;;5041671;28;20033;-64
2021/03/20 10:30:28;;;;;;;9.50;4.80;;;4.40;50.50;;;;;;5042424;28;20121;-64
2021/03/20 10:33:02;;;;;;;7.43;4.13;;;4.40;50.90;;;;;;5044415;28;20033;-64
2021/03/20 10:35:29;;;;;;;5.93;4.00;;;4.00;47.70;;;;;;5042142;28;20096;-63
2021/03/20 10:37:55;;;;;;;8.98;4.28;;;4.80;52.70;;;;;;5042287;28;20083;-64
2021/03/20 10:40:23;;;;;;;6.03;4.18;;;5.00;49.70;;;;;;5042031;28;20068;-64
2021/03/20 10:42:50;;;;;;;5.88;3.90;;;4.90;48.20;;;;;;5042307;28;20355;-63
2021/03/20 10:45:25;;;;;;;5.18;4.13;;;4.40;49.30;;;;;;5041466;28;20344;-64
2021/03/20 10:48:07;;;;;;;5.40;3.85;;;4.50;52.60;;;;;;5043857;28;20071;-64
2021/03/20 10:50:35;;;;;;;8.63;5.13;;;4.30;49.00;;;;;;5041436;28;20095;-64
2021/03/20 10:53:04;;;;;;;6.90;5.05;;;4.00;52.50;;;;;;5025359;28;20321;-63
2021/03/20 10:55:36;;;;;;;7.72;5.50;;;3.70;54.50;;;;;;5041152;28;20037;-64
2021/03/20 10:58:02;;;;;;;8.65;5.85;;;3.50;55.30;;;;;;5041098;28;20064;-64
2021/03/20 11:00:30;;;;;;;6.97;5.45;;;3.60;56.90;;;;;;5042252;28;20034;-64
2021/03/20 11:03:21;;;;;;;7.60;5.68;;;3.90;57.90;;;;;;5043651;28;20122;-64
2021/03/20 11:05:47;;;;;;;8.27;5.18;;;3.90;57.70;;;;;;5042793;28;20044;-64
2021/03/20 11:08:18;;;;;;;9.73;5.10;;;3.70;56.20;;;;;;5041520;28;20384;-64
2021/03/20 11:10:45;;;;;;;9.80;5.68;;;3.50;54.40;;;;;;5042033;28;20033;-64
2021/03/20 11:13:17;;;;;;;9.15;5.28;;;3.50;57.40;;;;;;5041222;28;20041;-63
2021/03/20 11:15:44;;;;;;;11.15;5.47;;;3.40;56.90;;;;;;5042038;28;20030;-64
2021/03/20 11:18:20;;;;;;;6.35;5.30;;;3.30;57.20;;;;;;5040891;28;20029;-63
2021/03/20 11:20:46;;;;;;;7.25;5.15;;;3.30;59.70;;;;;;5043709;28;20022;-64
2021/03/20 11:23:31;;;;;;;7.53;4.72;;;3.40;60.80;;;;;;5042356;28;20065;-64
2021/03/20 11:26:07;;;;;;;7.60;4.80;;;3.50;58.00;;;;;;5042214;28;20029;-63
2021/03/20 11:28:35;;;;;;;7.65;5.43;;;3.10;55.90;;;;;;5041349;28;20039;-64
2021/03/20 11:31:01;;;;;;;7.85;6.18;;;3.20;56.20;;;;;;5041044;28;20036;-63
2021/03/20 11:33:29;;;;;;;16.50;6.22;;;3.40;57.50;;;;;;5040692;28;20029;-64
2021/03/20 11:35:56;;;;;;;11.45;6.20;;;3.10;56.40;;;;;;5043503;28;20060;-63
2021/03/20 11:38:22;;;;;;;9.90;5.95;;;3.20;57.70;;;;;;5041950;28;20274;-63
2021/03/20 11:40:54;;;;;;;11.88;6.35;;;3.40;58.70;;;;;;5024729;28;20030;-63
2021/03/20 11:43:40;;;;;;;8.02;6.38;;;3.50;57.20;;;;;;5041894;28;20048;-63
2021/03/20 11:46:26;;;;;;;7.97;6.00;;;3.40;56.50;;;;;;5040989;28;20065;-63
2021/03/20 11:48:56;;;;;;;8.73;5.63;;;3.40;57.30;;;;;;5040671;28;20063;-63
2021/03/20 11:51:28;;;;;;;7.70;5.38;;;3.40;54.60;;;;;;5040676;28;20041;-64
2021/03/20 11:53:54;;;;;;;;;;;3.20;52.50;;;;;;5043300;28;20037;-64
2021/03/20 11:56:28;;;;;;;10.85;5.30;;;3.20;54.00;;;;;;5042015;28;19905;-63
2021/03/20 11:59:02;;;;;;;7.28;5.13;;;2.80;54.50;;;;;;5009434;28;20042;-63
2021/03/20 12:01:34;;;;;;;7.60;5.70;;;3.00;57.10;;;;;;5024037;28;20041;-64
2021/03/20 12:04:09;;;;;;;6.30;5.38;;;3.10;56.70;;;;;;5033734;28;20032;-64
2021/03/20 12:06:34;;;;;;;7.78;4.68;;;2.90;56.90;;;;;;5040804;28;20264;-64
2021/03/20 12:09:01;;;;;;;7.30;4.80;;;2.70;55.00;;;;;;5025815;28;20085;-64
2021/03/20 12:11:45;;;;;;;9.30;5.03;;;2.70;55.20;;;;;;5044873;28;20034;-63
2021/03/20 12:14:44;;;;;;;4.88;4.13;;;3.00;57.10;;;;;;5045553;28;20037;-65
2021/03/20 12:17:13;;;;;;;5.68;4.30;;;3.00;54.70;;;;;;5002044;28;20151;-64
2021/03/20 12:19:57;;;;;;;7.00;4.47;;;3.20;54.20;;;;;;5031868;28;20329;-65
2021/03/20 12:22:29;;;;;;;8.02;4.05;;;3.30;53.20;;;;;;5036131;28;20038;-64
2021/03/20 12:25:19;;;;;;;7.20;4.43;;;3.20;50.40;;;;;;5045116;28;20029;-64
2021/03/20 12:27:45;;;;;;;7.45;4.25;;;3.20;49.70;;;;;;5038478;28;20053;-64
2021/03/20 12:30:30;;;;;;;8.68;4.10;;;3.20;50.30;;;;;;5026462;28;20034;-64
2021/03/20 12:33:11;;;;;;;10.13;4.35;;;3.40;50.50;;;;;;5046279;28;20052;-65
2021/03/20 12:36:10;;;;;;;5.88;4.85;;;3.40;51.20;;;;;;5045348;28;20125;-65
2021/03/20 12:38:36;;;;;;;9.02;4.97;;;3.40;51.60;;;;;;5044317;28;20040;-65
2021/03/20 12:41:02;;;;;;;6.90;4.82;;;3.40;52.20;;;;;;5044668;28;20037;-66
2021/03/20 12:43:33;;;;;;;7.57;4.50;;;3.30;52.60;;;;;;5015000;28;20084;-64
2021/03/20 12:46:01;;;;;;;7.25;4.72;;;3.40;51.30;;;;;;5032579;28;20036;-65
2021/03/20 12:48:27;;;;;;;9.43;5.47;;;3.40;51.40;;;;;;5042979;28;20049;-65
2021/03/20 12:51:00;;;;;;;8.88;5.20;;;3.20;53.10;;;;;;5028566;28;20084;-65
2021/03/20 12:53:26;;;;;;;15.40;5.85;;;3.20;54.50;;;;;;5044725;28;20033;-64
2021/03/20 12:55:51;;;;;;;9.73;5.30;;;3.30;53.50;;;;;;5029068;28;20034;-64
2021/03/20 12:58:17;;;;;;;8.95;4.72;;;3.40;52.20;;;;;;5033293;28;20033;-64
2021/03/20 13:00:42;;;;;;;12.65;5.03;;;3.50;52.50;;;;;;5043777;28;20216;-64
2021/03/20 13:03:08;;;;;;;7.28;5.22;;;3.90;52.90;;;;;;5043707;28;20041;-65
2021/03/20 13:05:36;;;;;;;8.00;5.45;;;4.00;51.20;;;;;;5045929;28;20034;-64
2021/03/20 13:08:01;;;;;;;10.70;4.85;;;3.90;50.40;;;;;;5042860;28;20034;-64
2021/03/20 13:10:27;;;;;;;6.78;5.25;;;4.30;50.60;;;;;;5044142;28;20095;-64
2021/03/20 13:12:53;;;;;;;10.65;5.22;;;4.50;52.80;;;;;;5042607;28;20093;-64
2021/03/20 13:15:18;;;;;;;6.88;4.57;;;4.50;51.60;;;;;;5041417;28;20034;-64
2021/03/20 13:17:44;;;;;;;7.13;5.10;;;4.30;50.40;;;;;;5024626;28;20044;-64
2021/03/20 13:20:10;;;;;;;9.15;5.32;;;4.10;50.40;;;;;;5041227;28;20033;-64
2021/03/20 13:22:36;;;;;;;10.70;5.20;;;3.90;51.40;;;;;;5042320;28;20042;-64
2021/03/20 13:25:02;;;;;;;7.22;4.95;;;3.90;51.90;;;;;;5043443;28;20029;-64
2021/03/20 13:27:28;;;;;;;8.75;5.30;;;3.70;52.60;;;;;;5043519;28;20026;-62
2021/03/20 13:29:54;;;;;;;8.38;5.50;;;3.60;53.80;;;;;;5045295;28;20045;-62
2021/03/20 13:32:19;;;;;;;6.57;4.97;;;3.80;53.50;;;;;;5043502;28;20348;-64